sensor_id;sensor_type;location;lat;lon;timestamp;P1;durP1;ratioP1;P2;durP2;ratioP2
3801;SDS011;1916;51.798;12.246;2022-08-19T00:00:29;32.60;;;24.57;;
3801;SDS011;1916;51.798;12.246;2022-08-19T00:02:31;33.33;;;25.20;;
3801;SDS011;1916;51.798;12.246;2022-08-19T00:04:34;30.70;;;22.70;;
3801;SDS011;1916;51.798;12.246;2022-08-19T00:06:39;31.83;;;23.80;;
3801;SDS011;1916;51.798;12.246;2022-08-19T00:08:42;35.17;;;24.20;;
3801;SDS011;1916;51.798;12.246;2022-08-19T00:10:44;27.80;;;23.40;;
3801;SDS011;1916;51.798;12.246;2022-08-19T00:12:47;34.67;;;26.73;;
3801;SDS011;1916;51.798;12.246;2022-08-19T00:14:49;30.90;;;25.77;;
3801;SDS011;1916;51.798;12.246;2022-08-19T00:16:52;30.17;;;24.40;;
3801;SDS011;1916;51.798;12.246;2022-08-19T00:18:56;35.37;;;25.60;;
3801;SDS011;1916;51.798;12.246;2022-08-19T00:20:58;33.40;;;24.83;;
3801;SDS011;1916;51.798;12.246;2022-08-19T00:23:01;30.97;;;23.40;;
3801;SDS011;1916;51.798;12.246;2022-08-19T00:25:05;34.50;;;24.70;;
3801;SDS011;1916;51.798;12.246;2022-08-19T00:27:08;32.93;;;25.70;;
3801;SDS011;1916;51.798;12.246;2022-08-19T00:29:27;29.17;;;23.23;;
3801;SDS011;1916;51.798;12.246;2022-08-19T00:31:29;32.57;;;25.40;;
3801;SDS011;1916;51.798;12.246;2022-08-19T00:33:33;35.57;;;26.70;;
3801;SDS011;1916;51.798;12.246;2022-08-19T00:35:35;33.67;;;25.37;;
3801;SDS011;1916;51.798;12.246;2022-08-19T00:37:40;31.83;;;24.77;;
3801;SDS011;1916;51.798;12.246;2022-08-19T00:39:44;32.93;;;25.30;;
3801;SDS011;1916;51.798;12.246;2022-08-19T00:41:50;31.70;;;25.47;;
3801;SDS011;1916;51.798;12.246;2022-08-19T00:44:10;29.70;;;24.40;;
3801;SDS011;1916;51.798;12.246;2022-08-19T00:46:15;31.87;;;24.10;;
3801;SDS011;1916;51.798;12.246;2022-08-19T00:48:17;30.90;;;24.47;;
3801;SDS011;1916;51.798;12.246;2022-08-19T00:50:20;31.63;;;24.00;;
3801;SDS011;1916;51.798;12.246;2022-08-19T00:52:24;34.90;;;24.83;;
3801;SDS011;1916;51.798;12.246;2022-08-19T00:54:31;28.70;;;23.10;;
3801;SDS011;1916;51.798;12.246;2022-08-19T00:56:34;27.97;;;22.60;;
3801;SDS011;1916;51.798;12.246;2022-08-19T00:58:37;32.33;;;23.30;;
3801;SDS011;1916;51.798;12.246;2022-08-19T01:00:39;25.00;;;21.73;;
3801;SDS011;1916;51.798;12.246;2022-08-19T01:02:42;29.07;;;22.90;;
3801;SDS011;1916;51.798;12.246;2022-08-19T01:04:44;26.07;;;20.37;;
3801;SDS011;1916;51.798;12.246;2022-08-19T01:06:46;26.00;;;21.00;;
3801;SDS011;1916;51.798;12.246;2022-08-19T01:08:49;25.23;;;21.03;;
3801;SDS011;1916;51.798;12.246;2022-08-19T01:10:52;30.47;;;20.70;;
3801;SDS011;1916;51.798;12.246;2022-08-19T01:12:57;27.17;;;19.70;;
3801;SDS011;1916;51.798;12.246;2022-08-19T01:15:00;26.90;;;19.83;;
3801;SDS011;1916;51.798;12.246;2022-08-19T01:17:02;22.70;;;20.13;;
3801;SDS011;1916;51.798;12.246;2022-08-19T01:19:09;22.70;;;19.83;;
3801;SDS011;1916;51.798;12.246;2022-08-19T01:23:42;22.23;;;19.47;;
3801;SDS011;1916;51.798;12.246;2022-08-19T01:25:47;24.47;;;18.60;;
3801;SDS011;1916;51.798;12.246;2022-08-19T01:27:51;23.63;;;19.60;;
3801;SDS011;1916;51.798;12.246;2022-08-19T01:29:54;22.77;;;20.37;;
3801;SDS011;1916;51.798;12.246;2022-08-19T01:31:57;26.57;;;19.90;;
3801;SDS011;1916;51.798;12.246;2022-08-19T01:34:01;21.07;;;18.70;;
3801;SDS011;1916;51.798;12.246;2022-08-19T01:36:05;21.10;;;18.90;;
3801;SDS011;1916;51.798;12.246;2022-08-19T01:38:22;23.93;;;20.73;;
3801;SDS011;1916;51.798;12.246;2022-08-19T01:40:28;23.97;;;20.27;;
3801;SDS011;1916;51.798;12.246;2022-08-19T01:42:32;25.20;;;20.67;;
3801;SDS011;1916;51.798;12.246;2022-08-19T01:44:34;22.67;;;19.87;;
3801;SDS011;1916;51.798;12.246;2022-08-19T01:46:38;24.87;;;19.73;;
3801;SDS011;1916;51.798;12.246;2022-08-19T01:48:41;23.37;;;20.87;;
3801;SDS011;1916;51.798;12.246;2022-08-19T01:50:44;25.90;;;23.10;;
3801;SDS011;1916;51.798;12.246;2022-08-19T01:52:46;23.83;;;21.23;;
3801;SDS011;1916;51.798;12.246;2022-08-19T01:55:02;26.17;;;22.30;;
3801;SDS011;1916;51.798;12.246;2022-08-19T01:57:06;27.70;;;20.67;;
3801;SDS011;1916;51.798;12.246;2022-08-19T01:59:12;24.10;;;21.30;;
3801;SDS011;1916;51.798;12.246;2022-08-19T02:01:15;27.70;;;21.43;;
3801;SDS011;1916;51.798;12.246;2022-08-19T02:03:17;24.20;;;20.47;;
3801;SDS011;1916;51.798;12.246;2022-08-19T02:05:19;24.33;;;20.67;;
3801;SDS011;1916;51.798;12.246;2022-08-19T02:07:22;26.33;;;21.30;;
3801;SDS011;1916;51.798;12.246;2022-08-19T02:09:25;29.20;;;22.43;;
3801;SDS011;1916;51.798;12.246;2022-08-19T02:11:29;28.30;;;23.57;;
3801;SDS011;1916;51.798;12.246;2022-08-19T02:13:35;29.20;;;22.87;;
3801;SDS011;1916;51.798;12.246;2022-08-19T02:15:37;30.37;;;25.10;;
3801;SDS011;1916;51.798;12.246;2022-08-19T02:17:39;28.97;;;23.20;;
3801;SDS011;1916;51.798;12.246;2022-08-19T02:19:42;30.23;;;22.40;;
3801;SDS011;1916;51.798;12.246;2022-08-19T02:21:44;31.13;;;24.03;;
3801;SDS011;1916;51.798;12.246;2022-08-19T02:23:46;32.57;;;26.43;;
3801;SDS011;1916;51.798;12.246;2022-08-19T02:25:49;33.33;;;26.83;;
3801;SDS011;1916;51.798;12.246;2022-08-19T02:27:53;32.37;;;24.97;;
3801;SDS011;1916;51.798;12.246;2022-08-19T02:29:55;33.90;;;25.07;;
3801;SDS011;1916;51.798;12.246;2022-08-19T02:31:57;28.90;;;23.57;;
3801;SDS011;1916;51.798;12.246;2022-08-19T02:33:59;28.80;;;21.90;;
3801;SDS011;1916;51.798;12.246;2022-08-19T02:36:05;30.10;;;24.37;;
3801;SDS011;1916;51.798;12.246;2022-08-19T02:38:08;32.00;;;23.13;;
3801;SDS011;1916;51.798;12.246;2022-08-19T02:40:29;28.60;;;23.70;;
3801;SDS011;1916;51.798;12.246;2022-08-19T02:42:35;31.50;;;24.23;;
3801;SDS011;1916;51.798;12.246;2022-08-19T02:44:37;28.13;;;24.37;;
3801;SDS011;1916;51.798;12.246;2022-08-19T02:46:40;30.77;;;25.83;;
3801;SDS011;1916;51.798;12.246;2022-08-19T02:48:42;30.73;;;25.50;;
3801;SDS011;1916;51.798;12.246;2022-08-19T02:50:44;30.60;;;25.13;;
3801;SDS011;1916;51.798;12.246;2022-08-19T02:52:54;30.17;;;23.93;;
3801;SDS011;1916;51.798;12.246;2022-08-19T02:54:56;31.73;;;23.37;;
3801;SDS011;1916;51.798;12.246;2022-08-19T02:56:58;29.00;;;24.27;;
3801;SDS011;1916;51.798;12.246;2022-08-19T02:59:01;27.10;;;23.20;;
3801;SDS011;1916;51.798;12.246;2022-08-19T03:01:04;29.93;;;26.40;;
3801;SDS011;1916;51.798;12.246;2022-08-19T03:03:06;31.10;;;23.80;;
3801;SDS011;1916;51.798;12.246;2022-08-19T03:05:09;31.67;;;22.87;;
3801;SDS011;1916;51.798;12.246;2022-08-19T03:07:15;28.77;;;24.27;;
3801;SDS011;1916;51.798;12.246;2022-08-19T03:09:18;29.63;;;24.40;;
3801;SDS011;1916;51.798;12.246;2022-08-19T03:11:22;29.23;;;24.73;;
3801;SDS011;1916;51.798;12.246;2022-08-19T03:13:26;33.80;;;26.40;;
3801;SDS011;1916;51.798;12.246;2022-08-19T03:15:28;31.40;;;26.43;;
3801;SDS011;1916;51.798;12.246;2022-08-19T03:17:30;36.07;;;27.27;;
3801;SDS011;1916;51.798;12.246;2022-08-19T03:19:32;34.13;;;27.70;;
3801;SDS011;1916;51.798;12.246;2022-08-19T03:21:34;37.20;;;26.37;;
3801;SDS011;1916;51.798;12.246;2022-08-19T03:23:36;38.80;;;28.10;;
3801;SDS011;1916;51.798;12.246;2022-08-19T03:25:39;34.63;;;27.67;;
3801;SDS011;1916;51.798;12.246;2022-08-19T03:27:43;39.87;;;29.60;;
3801;SDS011;1916;51.798;12.246;2022-08-19T03:29:45;39.30;;;29.63;;
3801;SDS011;1916;51.798;12.246;2022-08-19T03:31:50;37.90;;;28.80;;
3801;SDS011;1916;51.798;12.246;2022-08-19T03:33:53;42.00;;;30.37;;
3801;SDS011;1916;51.798;12.246;2022-08-19T03:36:12;41.67;;;32.60;;
3801;SDS011;1916;51.798;12.246;2022-08-19T03:38:16;38.77;;;29.93;;
3801;SDS011;1916;51.798;12.246;2022-08-19T03:40:18;47.90;;;31.20;;
3801;SDS011;1916;51.798;12.246;2022-08-19T03:42:20;46.63;;;32.27;;
3801;SDS011;1916;51.798;12.246;2022-08-19T03:44:42;42.23;;;31.00;;
3801;SDS011;1916;51.798;12.246;2022-08-19T03:46:49;45.63;;;32.50;;
3801;SDS011;1916;51.798;12.246;2022-08-19T03:48:54;50.50;;;35.03;;
3801;SDS011;1916;51.798;12.246;2022-08-19T03:50:57;47.67;;;32.83;;
3801;SDS011;1916;51.798;12.246;2022-08-19T03:53:00;53.00;;;34.93;;
3801;SDS011;1916;51.798;12.246;2022-08-19T03:55:02;43.87;;;32.73;;
3801;SDS011;1916;51.798;12.246;2022-08-19T03:57:05;48.10;;;32.70;;
3801;SDS011;1916;51.798;12.246;2022-08-19T03:59:08;45.37;;;34.20;;
3801;SDS011;1916;51.798;12.246;2022-08-19T04:01:20;44.43;;;33.30;;
3801;SDS011;1916;51.798;12.246;2022-08-19T04:03:35;46.17;;;34.30;;
3801;SDS011;1916;51.798;12.246;2022-08-19T04:05:37;48.10;;;33.33;;
3801;SDS011;1916;51.798;12.246;2022-08-19T04:07:40;47.90;;;34.50;;
3801;SDS011;1916;51.798;12.246;2022-08-19T04:09:42;51.27;;;36.73;;
3801;SDS011;1916;51.798;12.246;2022-08-19T04:11:49;50.80;;;35.00;;
3801;SDS011;1916;51.798;12.246;2022-08-19T04:13:53;50.70;;;36.10;;
3801;SDS011;1916;51.798;12.246;2022-08-19T04:15:55;49.13;;;33.43;;
3801;SDS011;1916;51.798;12.246;2022-08-19T04:17:58;53.70;;;34.87;;
3801;SDS011;1916;51.798;12.246;2022-08-19T04:20:00;56.70;;;37.30;;
3801;SDS011;1916;51.798;12.246;2022-08-19T04:22:07;62.27;;;36.90;;
3801;SDS011;1916;51.798;12.246;2022-08-19T04:24:09;53.73;;;37.83;;
3801;SDS011;1916;51.798;12.246;2022-08-19T04:26:15;55.40;;;36.37;;
3801;SDS011;1916;51.798;12.246;2022-08-19T04:28:20;48.77;;;33.50;;
3801;SDS011;1916;51.798;12.246;2022-08-19T04:30:23;56.17;;;38.27;;
3801;SDS011;1916;51.798;12.246;2022-08-19T04:32:25;58.53;;;37.13;;
3801;SDS011;1916;51.798;12.246;2022-08-19T04:34:27;55.43;;;37.00;;
3801;SDS011;1916;51.798;12.246;2022-08-19T04:36:32;55.20;;;36.40;;
3801;SDS011;1916;51.798;12.246;2022-08-19T04:38:35;63.33;;;40.13;;
3801;SDS011;1916;51.798;12.246;2022-08-19T04:40:41;61.47;;;40.20;;
3801;SDS011;1916;51.798;12.246;2022-08-19T04:43:03;58.73;;;38.30;;
3801;SDS011;1916;51.798;12.246;2022-08-19T04:45:05;60.13;;;39.23;;
3801;SDS011;1916;51.798;12.246;2022-08-19T04:47:13;62.37;;;40.57;;
3801;SDS011;1916;51.798;12.246;2022-08-19T04:49:15;64.33;;;40.27;;
3801;SDS011;1916;51.798;12.246;2022-08-19T04:51:19;69.60;;;43.80;;
3801;SDS011;1916;51.798;12.246;2022-08-19T04:53:22;66.60;;;43.10;;
3801;SDS011;1916;51.798;12.246;2022-08-19T04:55:39;70.00;;;42.70;;
3801;SDS011;1916;51.798;12.246;2022-08-19T04:57:42;76.20;;;45.27;;
3801;SDS011;1916;51.798;12.246;2022-08-19T04:59:44;75.40;;;43.87;;
3801;SDS011;1916;51.798;12.246;2022-08-19T05:01:46;69.03;;;41.87;;
3801;SDS011;1916;51.798;12.246;2022-08-19T05:03:52;66.93;;;43.40;;
3801;SDS011;1916;51.798;12.246;2022-08-19T05:05:54;67.47;;;42.27;;
3801;SDS011;1916;51.798;12.246;2022-08-19T05:07:56;69.93;;;43.97;;
3801;SDS011;1916;51.798;12.246;2022-08-19T05:09:58;72.93;;;46.70;;
3801;SDS011;1916;51.798;12.246;2022-08-19T05:12:01;75.83;;;44.10;;
3801;SDS011;1916;51.798;12.246;2022-08-19T05:14:03;77.70;;;48.37;;
3801;SDS011;1916;51.798;12.246;2022-08-19T05:16:05;82.43;;;48.40;;
3801;SDS011;1916;51.798;12.246;2022-08-19T05:18:08;84.57;;;47.40;;
3801;SDS011;1916;51.798;12.246;2022-08-19T05:20:37;78.97;;;45.13;;
3801;SDS011;1916;51.798;12.246;2022-08-19T05:22:58;72.10;;;46.70;;
3801;SDS011;1916;51.798;12.246;2022-08-19T05:25:01;81.30;;;48.17;;
3801;SDS011;1916;51.798;12.246;2022-08-19T05:27:14;71.17;;;45.33;;
3801;SDS011;1916;51.798;12.246;2022-08-19T05:29:17;68.30;;;45.10;;
3801;SDS011;1916;51.798;12.246;2022-08-19T05:31:22;76.20;;;44.13;;
3801;SDS011;1916;51.798;12.246;2022-08-19T05:33:24;80.10;;;45.77;;
3801;SDS011;1916;51.798;12.246;2022-08-19T05:35:27;71.90;;;45.57;;
3801;SDS011;1916;51.798;12.246;2022-08-19T05:37:35;69.20;;;43.43;;
3801;SDS011;1916;51.798;12.246;2022-08-19T05:39:37;70.30;;;42.00;;
3801;SDS011;1916;51.798;12.246;2022-08-19T05:41:46;64.00;;;42.63;;
3801;SDS011;1916;51.798;12.246;2022-08-19T05:43:50;64.13;;;41.70;;
3801;SDS011;1916;51.798;12.246;2022-08-19T05:45:52;61.93;;;43.40;;
3801;SDS011;1916;51.798;12.246;2022-08-19T05:47:54;70.47;;;45.73;;
3801;SDS011;1916;51.798;12.246;2022-08-19T05:49:56;75.17;;;44.70;;
3801;SDS011;1916;51.798;12.246;2022-08-19T05:51:58;64.90;;;41.50;;
3801;SDS011;1916;51.798;12.246;2022-08-19T05:54:05;71.07;;;43.70;;
3801;SDS011;1916;51.798;12.246;2022-08-19T05:56:09;70.00;;;44.37;;
3801;SDS011;1916;51.798;12.246;2022-08-19T05:58:13;59.50;;;40.90;;
3801;SDS011;1916;51.798;12.246;2022-08-19T06:00:15;58.73;;;41.80;;
3801;SDS011;1916;51.798;12.246;2022-08-19T06:02:27;62.00;;;42.33;;
3801;SDS011;1916;51.798;12.246;2022-08-19T06:04:30;59.93;;;41.00;;
3801;SDS011;1916;51.798;12.246;2022-08-19T06:06:32;57.77;;;41.70;;
3801;SDS011;1916;51.798;12.246;2022-08-19T06:08:36;59.60;;;38.73;;
3801;SDS011;1916;51.798;12.246;2022-08-19T06:10:39;55.97;;;42.33;;
3801;SDS011;1916;51.798;12.246;2022-08-19T06:12:41;60.57;;;39.87;;
3801;SDS011;1916;51.798;12.246;2022-08-19T06:14:43;66.00;;;40.10;;
3801;SDS011;1916;51.798;12.246;2022-08-19T06:16:47;61.03;;;42.00;;
3801;SDS011;1916;51.798;12.246;2022-08-19T06:18:50;63.70;;;41.77;;
3801;SDS011;1916;51.798;12.246;2022-08-19T06:20:55;57.50;;;37.80;;
3801;SDS011;1916;51.798;12.246;2022-08-19T06:22:57;56.20;;;40.20;;
3801;SDS011;1916;51.798;12.246;2022-08-19T06:25:00;61.80;;;41.00;;
3801;SDS011;1916;51.798;12.246;2022-08-19T06:27:03;60.17;;;40.73;;
3801;SDS011;1916;51.798;12.246;2022-08-19T06:29:08;67.53;;;42.33;;
3801;SDS011;1916;51.798;12.246;2022-08-19T06:31:26;64.80;;;40.87;;
3801;SDS011;1916;51.798;12.246;2022-08-19T06:33:29;65.20;;;41.17;;
3801;SDS011;1916;51.798;12.246;2022-08-19T06:35:32;71.60;;;43.27;;
3801;SDS011;1916;51.798;12.246;2022-08-19T06:37:34;65.63;;;42.60;;
3801;SDS011;1916;51.798;12.246;2022-08-19T06:39:39;66.90;;;40.37;;
3801;SDS011;1916;51.798;12.246;2022-08-19T06:41:44;63.47;;;39.43;;
3801;SDS011;1916;51.798;12.246;2022-08-19T06:43:53;61.43;;;38.90;;
3801;SDS011;1916;51.798;12.246;2022-08-19T06:45:57;67.03;;;41.10;;
3801;SDS011;1916;51.798;12.246;2022-08-19T06:48:02;62.73;;;42.07;;
3801;SDS011;1916;51.798;12.246;2022-08-19T06:50:04;68.80;;;40.03;;
3801;SDS011;1916;51.798;12.246;2022-08-19T06:52:07;67.43;;;43.43;;
3801;SDS011;1916;51.798;12.246;2022-08-19T06:54:15;62.90;;;41.20;;
3801;SDS011;1916;51.798;12.246;2022-08-19T06:56:22;62.70;;;42.07;;
3801;SDS011;1916;51.798;12.246;2022-08-19T06:58:26;67.57;;;40.87;;
3801;SDS011;1916;51.798;12.246;2022-08-19T07:00:32;62.13;;;38.83;;
3801;SDS011;1916;51.798;12.246;2022-08-19T07:02:35;62.70;;;38.97;;
3801;SDS011;1916;51.798;12.246;2022-08-19T07:04:39;62.03;;;36.83;;
3801;SDS011;1916;51.798;12.246;2022-08-19T07:06:43;59.70;;;39.67;;
3801;SDS011;1916;51.798;12.246;2022-08-19T07:08:55;62.77;;;39.90;;
3801;SDS011;1916;51.798;12.246;2022-08-19T07:10:58;65.87;;;38.80;;
3801;SDS011;1916;51.798;12.246;2022-08-19T07:13:00;58.90;;;39.47;;
3801;SDS011;1916;51.798;12.246;2022-08-19T07:15:05;59.33;;;38.60;;
3801;SDS011;1916;51.798;12.246;2022-08-19T07:17:10;62.40;;;38.23;;
3801;SDS011;1916;51.798;12.246;2022-08-19T07:19:13;61.53;;;38.60;;
3801;SDS011;1916;51.798;12.246;2022-08-19T07:21:22;63.87;;;39.17;;
3801;SDS011;1916;51.798;12.246;2022-08-19T07:23:30;61.33;;;36.97;;
3801;SDS011;1916;51.798;12.246;2022-08-19T07:25:32;59.20;;;38.80;;
3801;SDS011;1916;51.798;12.246;2022-08-19T07:27:34;58.10;;;36.70;;
3801;SDS011;1916;51.798;12.246;2022-08-19T07:29:36;57.37;;;38.13;;
3801;SDS011;1916;51.798;12.246;2022-08-19T07:31:38;52.53;;;35.53;;
3801;SDS011;1916;51.798;12.246;2022-08-19T07:33:44;57.00;;;34.50;;
3801;SDS011;1916;51.798;12.246;2022-08-19T07:35:48;58.93;;;40.47;;
3801;SDS011;1916;51.798;12.246;2022-08-19T07:37:51;59.00;;;34.40;;
3801;SDS011;1916;51.798;12.246;2022-08-19T07:39:54;55.27;;;35.77;;
3801;SDS011;1916;51.798;12.246;2022-08-19T07:41:57;50.87;;;35.07;;
3801;SDS011;1916;51.798;12.246;2022-08-19T07:44:00;52.13;;;34.70;;
3801;SDS011;1916;51.798;12.246;2022-08-19T07:46:05;50.97;;;35.23;;
3801;SDS011;1916;51.798;12.246;2022-08-19T07:48:12;51.90;;;34.13;;
3801;SDS011;1916;51.798;12.246;2022-08-19T07:50:16;49.10;;;35.73;;
3801;SDS011;1916;51.798;12.246;2022-08-19T07:52:20;50.67;;;34.33;;
3801;SDS011;1916;51.798;12.246;2022-08-19T07:54:22;44.87;;;32.50;;
3801;SDS011;1916;51.798;12.246;2022-08-19T07:56:26;49.57;;;34.57;;
3801;SDS011;1916;51.798;12.246;2022-08-19T07:58:28;50.20;;;32.43;;
3801;SDS011;1916;51.798;12.246;2022-08-19T08:00:30;49.33;;;31.30;;
3801;SDS011;1916;51.798;12.246;2022-08-19T08:02:32;43.00;;;31.60;;
3801;SDS011;1916;51.798;12.246;2022-08-19T08:04:34;42.77;;;31.30;;
3801;SDS011;1916;51.798;12.246;2022-08-19T08:06:55;47.13;;;30.83;;
3801;SDS011;1916;51.798;12.246;2022-08-19T08:09:16;50.40;;;33.10;;
3801;SDS011;1916;51.798;12.246;2022-08-19T08:11:24;41.20;;;32.10;;
3801;SDS011;1916;51.798;12.246;2022-08-19T08:13:30;44.10;;;31.70;;
3801;SDS011;1916;51.798;12.246;2022-08-19T08:15:32;42.97;;;31.63;;
3801;SDS011;1916;51.798;12.246;2022-08-19T08:17:40;44.73;;;32.07;;
3801;SDS011;1916;51.798;12.246;2022-08-19T08:19:52;39.87;;;30.57;;
3801;SDS011;1916;51.798;12.246;2022-08-19T08:21:56;44.50;;;30.33;;
3801;SDS011;1916;51.798;12.246;2022-08-19T08:23:59;44.87;;;31.00;;
3801;SDS011;1916;51.798;12.246;2022-08-19T08:26:06;42.60;;;31.53;;
3801;SDS011;1916;51.798;12.246;2022-08-19T08:28:08;43.13;;;30.77;;
3801;SDS011;1916;51.798;12.246;2022-08-19T08:30:20;45.00;;;32.27;;
3801;SDS011;1916;51.798;12.246;2022-08-19T08:32:23;45.90;;;33.60;;
3801;SDS011;1916;51.798;12.246;2022-08-19T08:34:25;42.90;;;30.70;;
3801;SDS011;1916;51.798;12.246;2022-08-19T08:36:28;44.87;;;31.27;;
3801;SDS011;1916;51.798;12.246;2022-08-19T08:38:31;46.30;;;32.20;;
3801;SDS011;1916;51.798;12.246;2022-08-19T08:40:50;49.90;;;31.80;;
3801;SDS011;1916;51.798;12.246;2022-08-19T08:43:19;45.10;;;30.87;;
3801;SDS011;1916;51.798;12.246;2022-08-19T08:45:24;43.10;;;30.43;;
3801;SDS011;1916;51.798;12.246;2022-08-19T08:47:28;44.33;;;31.17;;
3801;SDS011;1916;51.798;12.246;2022-08-19T08:49:45;44.57;;;31.50;;
3801;SDS011;1916;51.798;12.246;2022-08-19T08:52:41;38.90;;;29.87;;
3801;SDS011;1916;51.798;12.246;2022-08-19T08:54:37;44.37;;;30.80;;
3801;SDS011;1916;51.798;12.246;2022-08-19T08:56:55;41.07;;;30.40;;
3801;SDS011;1916;51.798;12.246;2022-08-19T08:58:59;44.00;;;32.07;;
3801;SDS011;1916;51.798;12.246;2022-08-19T09:01:05;44.67;;;32.87;;
3801;SDS011;1916;51.798;12.246;2022-08-19T09:03:09;42.23;;;33.57;;
3801;SDS011;1916;51.798;12.246;2022-08-19T09:05:19;45.17;;;31.03;;
3801;SDS011;1916;51.798;12.246;2022-08-19T09:10:02;44.53;;;31.93;;
3801;SDS011;1916;51.798;12.246;2022-08-19T09:12:42;47.13;;;32.80;;
3801;SDS011;1916;51.798;12.246;2022-08-19T09:14:57;49.00;;;32.87;;
3801;SDS011;1916;51.798;12.246;2022-08-19T09:17:09;43.90;;;33.00;;
3801;SDS011;1916;51.798;12.246;2022-08-19T09:19:12;50.37;;;32.50;;
3801;SDS011;1916;51.798;12.246;2022-08-19T09:21:15;41.73;;;30.63;;
3801;SDS011;1916;51.798;12.246;2022-08-19T09:23:17;41.40;;;32.10;;
3801;SDS011;1916;51.798;12.246;2022-08-19T09:25:27;44.73;;;31.50;;
3801;SDS011;1916;51.798;12.246;2022-08-19T09:27:30;49.17;;;32.57;;
3801;SDS011;1916;51.798;12.246;2022-08-19T09:29:43;44.93;;;31.70;;
3801;SDS011;1916;51.798;12.246;2022-08-19T09:31:45;44.37;;;32.97;;
3801;SDS011;1916;51.798;12.246;2022-08-19T09:33:48;49.23;;;33.33;;
3801;SDS011;1916;51.798;12.246;2022-08-19T09:36:01;43.23;;;31.67;;
3801;SDS011;1916;51.798;12.246;2022-08-19T09:38:22;46.13;;;32.70;;
3801;SDS011;1916;51.798;12.246;2022-08-19T09:40:25;42.30;;;31.10;;
3801;SDS011;1916;51.798;12.246;2022-08-19T09:42:31;46.33;;;30.53;;
3801;SDS011;1916;51.798;12.246;2022-08-19T09:44:36;43.67;;;31.57;;
3801;SDS011;1916;51.798;12.246;2022-08-19T09:46:38;41.53;;;30.63;;
3801;SDS011;1916;51.798;12.246;2022-08-19T09:48:40;42.17;;;30.63;;
3801;SDS011;1916;51.798;12.246;2022-08-19T09:50:43;46.67;;;31.60;;
3801;SDS011;1916;51.798;12.246;2022-08-19T09:52:52;44.17;;;30.57;;
3801;SDS011;1916;51.798;12.246;2022-08-19T09:54:58;41.73;;;28.83;;
3801;SDS011;1916;51.798;12.246;2022-08-19T09:57:01;36.10;;;28.00;;
3801;SDS011;1916;51.798;12.246;2022-08-19T09:59:08;42.83;;;29.47;;
3801;SDS011;1916;51.798;12.246;2022-08-19T10:01:15;36.03;;;27.73;;
3801;SDS011;1916;51.798;12.246;2022-08-19T10:03:21;35.80;;;28.80;;
3801;SDS011;1916;51.798;12.246;2022-08-19T10:05:30;35.23;;;28.17;;
3801;SDS011;1916;51.798;12.246;2022-08-19T10:07:50;42.93;;;28.40;;
3801;SDS011;1916;51.798;12.246;2022-08-19T10:09:53;42.10;;;29.10;;
3801;SDS011;1916;51.798;12.246;2022-08-19T10:11:56;35.53;;;27.90;;
3801;SDS011;1916;51.798;12.246;2022-08-19T10:13:59;35.03;;;27.80;;
3801;SDS011;1916;51.798;12.246;2022-08-19T10:16:08;38.40;;;28.47;;
3801;SDS011;1916;51.798;12.246;2022-08-19T10:18:12;37.00;;;27.60;;
3801;SDS011;1916;51.798;12.246;2022-08-19T10:20:15;36.60;;;28.20;;
3801;SDS011;1916;51.798;12.246;2022-08-19T10:22:18;36.40;;;28.07;;
3801;SDS011;1916;51.798;12.246;2022-08-19T10:24:20;39.30;;;28.07;;
3801;SDS011;1916;51.798;12.246;2022-08-19T10:26:27;36.53;;;26.73;;
3801;SDS011;1916;51.798;12.246;2022-08-19T10:28:33;38.10;;;28.03;;
3801;SDS011;1916;51.798;12.246;2022-08-19T10:30:39;35.10;;;26.53;;
3801;SDS011;1916;51.798;12.246;2022-08-19T10:32:43;39.20;;;27.83;;
3801;SDS011;1916;51.798;12.246;2022-08-19T10:34:47;34.77;;;26.00;;
3801;SDS011;1916;51.798;12.246;2022-08-19T10:36:58;33.93;;;24.70;;
3801;SDS011;1916;51.798;12.246;2022-08-19T10:39:05;37.20;;;24.80;;
3801;SDS011;1916;51.798;12.246;2022-08-19T10:41:10;34.87;;;25.57;;
3801;SDS011;1916;51.798;12.246;2022-08-19T10:43:14;30.17;;;23.20;;
3801;SDS011;1916;51.798;12.246;2022-08-19T10:45:17;37.93;;;22.90;;
3801;SDS011;1916;51.798;12.246;2022-08-19T10:47:19;30.13;;;22.67;;
3801;SDS011;1916;51.798;12.246;2022-08-19T10:49:32;30.63;;;21.60;;
3801;SDS011;1916;51.798;12.246;2022-08-19T10:51:54;30.50;;;21.83;;
3801;SDS011;1916;51.798;12.246;2022-08-19T10:54:22;28.37;;;21.57;;
3801;SDS011;1916;51.798;12.246;2022-08-19T10:56:35;28.33;;;21.20;;
3801;SDS011;1916;51.798;12.246;2022-08-19T10:58:58;29.07;;;21.53;;
3801;SDS011;1916;51.798;12.246;2022-08-19T11:01:01;28.00;;;19.63;;
3801;SDS011;1916;51.798;12.246;2022-08-19T11:03:03;23.73;;;19.63;;
3801;SDS011;1916;51.798;12.246;2022-08-19T11:05:05;25.87;;;21.30;;
3801;SDS011;1916;51.798;12.246;2022-08-19T11:07:14;23.73;;;19.27;;
3801;SDS011;1916;51.798;12.246;2022-08-19T11:09:17;26.20;;;20.30;;
3801;SDS011;1916;51.798;12.246;2022-08-19T11:11:22;25.20;;;20.93;;
3801;SDS011;1916;51.798;12.246;2022-08-19T11:13:24;25.17;;;22.47;;
3801;SDS011;1916;51.798;12.246;2022-08-19T11:15:26;28.00;;;21.33;;
3801;SDS011;1916;51.798;12.246;2022-08-19T11:17:30;25.50;;;20.70;;
3801;SDS011;1916;51.798;12.246;2022-08-19T11:19:33;27.60;;;19.97;;
3801;SDS011;1916;51.798;12.246;2022-08-19T11:21:37;26.03;;;19.90;;
3801;SDS011;1916;51.798;12.246;2022-08-19T11:23:41;22.57;;;18.90;;
3801;SDS011;1916;51.798;12.246;2022-08-19T11:25:43;24.67;;;19.43;;
3801;SDS011;1916;51.798;12.246;2022-08-19T11:27:47;22.10;;;19.10;;
3801;SDS011;1916;51.798;12.246;2022-08-19T11:29:52;21.03;;;18.33;;
3801;SDS011;1916;51.798;12.246;2022-08-19T11:31:54;25.43;;;19.50;;
3801;SDS011;1916;51.798;12.246;2022-08-19T11:33:57;24.73;;;18.33;;
3801;SDS011;1916;51.798;12.246;2022-08-19T11:36:01;22.90;;;18.20;;
3801;SDS011;1916;51.798;12.246;2022-08-19T11:38:04;22.90;;;19.20;;
3801;SDS011;1916;51.798;12.246;2022-08-19T11:40:10;23.47;;;17.87;;
3801;SDS011;1916;51.798;12.246;2022-08-19T11:42:13;24.30;;;19.37;;
3801;SDS011;1916;51.798;12.246;2022-08-19T11:44:34;24.47;;;18.90;;
3801;SDS011;1916;51.798;12.246;2022-08-19T11:46:37;23.20;;;19.80;;
3801;SDS011;1916;51.798;12.246;2022-08-19T11:48:40;27.40;;;19.80;;
3801;SDS011;1916;51.798;12.246;2022-08-19T11:50:42;27.63;;;19.47;;
3801;SDS011;1916;51.798;12.246;2022-08-19T11:52:45;26.57;;;19.30;;
3801;SDS011;1916;51.798;12.246;2022-08-19T11:54:47;24.03;;;19.13;;
3801;SDS011;1916;51.798;12.246;2022-08-19T11:56:49;20.80;;;17.00;;
3801;SDS011;1916;51.798;12.246;2022-08-19T11:58:52;21.77;;;18.40;;
3801;SDS011;1916;51.798;12.246;2022-08-19T12:00:55;24.20;;;17.87;;
3801;SDS011;1916;51.798;12.246;2022-08-19T12:02:57;23.90;;;17.47;;
3801;SDS011;1916;51.798;12.246;2022-08-19T12:04:59;23.40;;;16.30;;
3801;SDS011;1916;51.798;12.246;2022-08-19T12:07:07;36.70;;;19.27;;
3801;SDS011;1916;51.798;12.246;2022-08-19T12:09:10;26.13;;;19.43;;
3801;SDS011;1916;51.798;12.246;2022-08-19T12:11:13;27.93;;;20.20;;
3801;SDS011;1916;51.798;12.246;2022-08-19T12:13:15;23.13;;;17.37;;
3801;SDS011;1916;51.798;12.246;2022-08-19T12:15:20;23.77;;;18.80;;
3801;SDS011;1916;51.798;12.246;2022-08-19T12:17:22;27.73;;;18.97;;
3801;SDS011;1916;51.798;12.246;2022-08-19T12:19:25;19.80;;;17.37;;
3801;SDS011;1916;51.798;12.246;2022-08-19T12:21:27;25.13;;;18.43;;
3801;SDS011;1916;51.798;12.246;2022-08-19T12:23:30;24.23;;;20.20;;
3801;SDS011;1916;51.798;12.246;2022-08-19T12:25:32;22.77;;;19.33;;
3801;SDS011;1916;51.798;12.246;2022-08-19T12:27:36;31.67;;;19.40;;